Time;durP1;ratioP1;P1;durP2;ratioP2;P2;SDS_P1;SDS_P2;PMS_P1;PMS_P2;Temp;Humidity;BMP_temperature;BMP_pressure;BME280_temperature;BME280_humidity;BME280_pressure;Samples;Min_cycle;Max_cycle;Signal;HPM_P1;HPM_P2
2022/08/30 00:01:04;;;;;;;6.80;5.37;;;27.70;47.80;;;;;;4946772;28;20204;-45
2022/08/30 00:03:35;;;;;;;6.27;5.33;;;27.70;47.80;;;;;;4948928;28;20197;-48
2022/08/30 00:06:01;;;;;;;7.80;6.17;;;27.70;47.70;;;;;;4949041;28;20810;-46
2022/08/30 00:08:27;;;;;;;9.20;6.07;;;27.60;47.60;;;;;;4948319;28;20452;-45
2022/08/30 00:10:53;;;;;;;7.50;5.90;;;27.70;47.60;;;;;;4947265;28;20451;-48
2022/08/30 00:13:20;;;;;;;6.70;5.70;;;27.60;47.50;;;;;;4947064;28;20236;-47
2022/08/30 00:15:47;;;;;;;6.77;6.03;;;27.60;47.20;;;;;;4947063;28;20435;-45
2022/08/30 00:18:14;;;;;;;6.13;5.53;;;27.50;47.20;;;;;;4953550;29;20452;-49
2022/08/30 00:20:40;;;;;;;6.13;5.63;;;27.50;47.20;;;;;;4945136;28;20454;-45
2022/08/30 00:23:06;;;;;;;5.93;5.43;;;27.50;47.60;;;;;;4948137;28;20474;-49
2022/08/30 00:25:32;;;;;;;5.97;5.43;;;27.50;47.90;;;;;;4949470;28;20940;-45
2022/08/30 00:27:58;;;;;;;6.87;6.27;;;27.50;47.90;;;;;;4950541;28;20707;-45
2022/08/30 00:30:23;;;;;;;6.23;5.50;;;27.50;47.80;;;;;;4950837;28;20454;-49
2022/08/30 00:32:49;;;;;;;6.27;5.77;;;27.50;48.00;;;;;;4951074;28;20192;-46
2022/08/30 00:35:19;;;;;;;7.53;6.40;;;27.40;48.10;;;;;;4948556;28;20853;-46
2022/08/30 00:37:45;;;;;;;6.90;6.20;;;27.40;48.30;;;;;;4945563;28;20235;-47
2022/08/30 00:40:14;;;;;;;8.33;6.07;;;27.30;48.40;;;;;;4947994;28;20447;-45
2022/08/30 00:42:42;;;;;;;6.20;5.57;;;27.30;48.70;;;;;;4952168;28;20440;-45
2022/08/30 00:45:33;;;;;;;5.90;5.40;;;27.30;48.70;;;;;;4947355;28;20452;-47
2022/08/30 00:47:59;;;;;;;6.73;6.13;;;27.30;48.70;;;;;;4947324;28;20578;-46
2022/08/30 00:50:31;;;;;;;6.47;5.90;;;27.20;48.60;;;;;;4948943;28;20438;-47
2022/08/30 00:53:00;;;;;;;7.00;6.40;;;27.20;48.50;;;;;;4950083;28;20505;-46
2022/08/30 00:55:26;;;;;;;6.37;5.77;;;27.10;48.60;;;;;;4949192;28;20486;-48
2022/08/30 00:57:58;;;;;;;8.13;6.40;;;27.10;48.60;;;;;;4951494;28;20881;-45
2022/08/30 01:00:25;;;;;;;6.73;6.13;;;27.10;48.90;;;;;;4943173;28;20444;-45
2022/08/30 01:02:50;;;;;;;7.23;6.17;;;27.00;49.00;;;;;;4940463;29;20448;-45
2022/08/30 01:05:17;;;;;;;7.90;6.70;;;27.00;49.00;;;;;;4940921;29;20466;-48
2022/08/30 01:07:42;;;;;;;6.97;6.10;;;26.90;49.60;;;;;;4946364;28;20575;-46
2022/08/30 01:10:10;;;;;;;7.33;6.63;;;26.90;49.20;;;;;;4942942;28;20442;-45
2022/08/30 01:12:41;;;;;;;6.57;5.97;;;26.90;49.20;;;;;;4946926;28;20274;-45
2022/08/30 01:15:08;;;;;;;6.47;5.97;;;26.80;49.30;;;;;;4943813;28;20623;-45
2022/08/30 01:17:35;;;;;;;7.00;6.40;;;26.80;49.20;;;;;;4947885;28;20982;-45
2022/08/30 01:20:06;;;;;;;6.10;5.60;;;26.80;49.40;;;;;;4947468;28;20443;-49
2022/08/30 01:22:49;;;;;;;7.47;6.80;;;26.80;49.30;;;;;;4944707;28;20439;-48
2022/08/30 01:25:22;;;;;;;10.40;6.67;;;26.70;49.30;;;;;;4945191;28;20813;-45
2022/08/30 01:28:18;;;;;;;8.87;6.27;;;26.60;49.40;;;;;;4944354;28;20919;-46
2022/08/30 01:30:45;;;;;;;6.80;6.20;;;26.60;49.50;;;;;;4945894;28;20518;-47
2022/08/30 01:33:11;;;;;;;6.83;6.23;;;26.50;50.30;;;;;;4948673;28;20448;-45
2022/08/30 01:35:55;;;;;;;8.40;6.87;;;26.50;49.90;;;;;;4946957;28;20452;-45
2022/08/30 01:38:26;;;;;;;7.23;6.40;;;26.40;49.80;;;;;;4946044;28;20453;-45
2022/08/30 01:40:58;;;;;;;6.77;6.17;;;26.30;49.80;;;;;;4943070;28;20444;-45
2022/08/30 01:43:24;;;;;;;7.20;6.20;;;26.30;50.50;;;;;;4941325;28;20443;-45
2022/08/30 01:45:49;;;;;;;6.13;5.53;;;26.30;50.50;;;;;;4947050;28;20473;-45
2022/08/30 01:48:15;;;;;;;8.33;6.20;;;26.30;50.30;;;;;;4945456;28;20227;-46
2022/08/30 01:50:41;;;;;;;7.57;6.77;;;26.30;50.50;;;;;;4949610;28;20212;-48
2022/08/30 01:53:07;;;;;;;6.47;5.87;;;26.40;50.30;;;;;;4945616;28;20202;-49
2022/08/30 01:55:33;;;;;;;6.67;5.53;;;26.40;50.10;;;;;;4940212;28;20254;-47
2022/08/30 01:57:59;;;;;;;6.53;5.93;;;26.50;50.10;;;;;;4944383;28;20454;-44
2022/08/30 02:00:25;;;;;;;6.10;5.60;;;26.50;49.90;;;;;;4948161;28;20456;-44
2022/08/30 02:02:51;;;;;;;7.97;5.97;;;26.50;50.00;;;;;;4943149;28;20951;-47
2022/08/30 02:05:17;;;;;;;6.63;6.03;;;26.50;50.10;;;;;;4950316;28;20192;-46
2022/08/30 02:07:42;;;;;;;7.47;6.60;;;26.50;50.00;;;;;;4942890;28;20235;-45
2022/08/30 02:10:09;;;;;;;7.10;6.40;;;26.50;49.80;;;;;;4945456;28;20200;-47
2022/08/30 02:12:34;;;;;;;6.37;5.87;;;26.50;49.90;;;;;;4946078;28;20238;-47
2022/08/30 02:15:00;;;;;;;7.10;5.63;;;26.50;49.60;;;;;;4942832;28;20459;-46
2022/08/30 02:17:26;;;;;;;6.47;5.87;;;26.50;49.80;;;;;;4946082;28;20205;-47
2022/08/30 02:19:52;;;;;;;6.40;5.87;;;26.40;49.60;;;;;;4943504;28;20204;-47
2022/08/30 02:22:19;;;;;;;6.50;5.83;;;26.40;49.80;;;;;;4937948;28;20290;-49
2022/08/30 02:24:45;;;;;;;7.27;6.57;;;26.40;49.80;;;;;;4948153;28;20196;-45
2022/08/30 02:27:11;;;;;;;7.10;5.87;;;26.40;50.40;;;;;;4949902;28;20495;-46
2022/08/30 02:29:37;;;;;;;6.27;5.77;;;26.40;50.10;;;;;;4948013;28;20218;-47
2022/08/30 02:32:03;;;;;;;8.70;5.80;;;26.30;49.80;;;;;;4951735;28;20199;-45
2022/08/30 02:34:28;;;;;;;6.43;5.73;;;26.30;49.70;;;;;;4947439;28;20188;-47
2022/08/30 02:36:54;;;;;;;6.50;5.63;;;26.30;49.80;;;;;;4947859;28;20454;-45
2022/08/30 02:39:19;;;;;;;6.07;5.57;;;26.20;50.00;;;;;;4950180;28;20572;-49
2022/08/30 02:41:45;;;;;;;6.60;5.90;;;26.20;49.90;;;;;;4946066;28;20558;-47
2022/08/30 02:44:11;;;;;;;6.03;5.50;;;26.20;50.10;;;;;;4947749;28;20334;-47
2022/08/30 02:46:37;;;;;;;7.50;5.63;;;26.20;50.00;;;;;;4949054;28;20701;-45
2022/08/30 02:49:04;;;;;;;6.60;6.10;;;26.10;50.00;;;;;;4950137;28;20570;-46
2022/08/30 02:51:30;;;;;;;6.77;6.17;;;26.10;50.20;;;;;;4947175;28;20506;-44
2022/08/30 02:53:56;;;;;;;8.43;5.87;;;26.00;50.20;;;;;;4948511;28;21028;-46
2022/08/30 02:56:21;;;;;;;6.20;5.63;;;25.90;50.00;;;;;;4949103;28;20570;-46
2022/08/30 02:58:47;;;;;;;5.80;5.30;;;25.90;50.30;;;;;;4945502;28;20271;-47
2022/08/30 03:01:14;;;;;;;6.47;5.73;;;25.90;50.50;;;;;;4943847;28;20302;-46
2022/08/30 03:03:41;;;;;;;6.40;5.80;;;25.90;50.50;;;;;;4937682;28;20207;-47
2022/08/30 03:06:06;;;;;;;5.47;4.97;;;25.90;50.20;;;;;;4946449;28;20535;-45
2022/08/30 03:08:33;;;;;;;8.83;6.00;;;25.90;50.20;;;;;;4946121;28;20535;-45
2022/08/30 03:10:59;;;;;;;6.13;5.37;;;25.90;50.10;;;;;;4945537;28;20630;-46
2022/08/30 03:13:24;;;;;;;5.77;5.10;;;25.90;50.20;;;;;;4947500;28;20490;-49
2022/08/30 03:15:50;;;;;;;6.00;5.40;;;25.90;49.90;;;;;;4947632;28;20439;-46
2022/08/30 03:18:17;;;;;;;6.60;6.00;;;25.90;49.70;;;;;;4951043;28;20223;-46
2022/08/30 03:20:43;;;;;;;8.70;6.30;;;25.80;50.10;;;;;;4946540;28;20204;-45
2022/08/30 03:23:08;;;;;;;6.27;5.77;;;25.80;50.10;;;;;;4950401;28;20435;-45
2022/08/30 03:25:34;;;;;;;7.27;5.53;;;25.70;50.50;;;;;;4946301;28;20649;-45
2022/08/30 03:28:00;;;;;;;6.00;5.50;;;25.70;50.60;;;;;;4947327;28;20242;-45
2022/08/30 03:30:26;;;;;;;6.60;6.10;;;25.80;50.60;;;;;;4948534;28;20196;-45
2022/08/30 03:32:51;;;;;;;6.10;5.57;;;25.70;51.20;;;;;;4953090;28;20345;-47
2022/08/30 03:35:18;;;;;;;6.57;5.97;;;25.70;50.40;;;;;;4946703;28;20200;-46
2022/08/30 03:37:44;;;;;;;9.53;6.60;;;25.70;50.50;;;;;;4948666;28;20219;-49
2022/08/30 03:40:12;;;;;;;8.60;6.07;;;25.60;50.10;;;;;;4943160;28;20490;-46
2022/08/30 03:42:37;;;;;;;7.70;7.00;;;25.60;50.10;;;;;;4946249;28;20458;-49
2022/08/30 03:45:04;;;;;;;10.40;6.70;;;25.40;50.40;;;;;;4943696;28;20946;-46
2022/08/30 03:47:29;;;;;;;7.10;6.40;;;25.20;51.50;;;;;;4947491;28;20256;-47
2022/08/30 03:49:55;;;;;;;7.20;6.50;;;25.10;51.30;;;;;;4949253;28;20451;-46
2022/08/30 03:52:21;;;;;;;6.20;5.70;;;25.10;51.90;;;;;;4948673;28;20200;-45
2022/08/30 03:54:47;;;;;;;12.63;7.53;;;25.10;51.70;;;;;;4943819;28;20455;-49
2022/08/30 03:57:13;;;;;;;6.53;6.00;;;24.80;52.00;;;;;;4946214;28;20712;-46
2022/08/30 03:59:39;;;;;;;6.53;5.93;;;24.50;52.70;;;;;;4947313;28;20198;-47
2022/08/30 04:02:05;;;;;;;7.43;6.80;;;24.50;53.30;;;;;;4940570;28;20440;-45
2022/08/30 04:04:31;;;;;;;8.50;6.20;;;24.00;54.40;;;;;;4944618;28;20192;-46
2022/08/30 04:06:57;;;;;;;7.00;6.43;;;23.90;54.60;;;;;;4940150;28;20494;-46
2022/08/30 04:09:23;;;;;;;8.13;7.43;;;24.00;54.70;;;;;;4939315;28;20235;-47
2022/08/30 04:11:49;;;;;;;7.20;6.60;;;24.10;54.20;;;;;;4948546;29;20283;-48
2022/08/30 04:14:15;;;;;;;7.50;6.80;;;24.30;53.90;;;;;;4941946;28;20488;-46
2022/08/30 04:16:41;;;;;;;8.00;6.90;;;24.40;53.30;;;;;;4944605;28;20455;-45
2022/08/30 04:19:07;;;;;;;7.63;6.93;;;24.50;53.10;;;;;;4950049;28;20441;-47
2022/08/30 04:21:32;;;;;;;7.67;7.00;;;24.40;53.00;;;;;;4945829;28;20207;-47
2022/08/30 04:23:58;;;;;;;7.27;6.67;;;24.30;53.20;;;;;;4945156;28;20203;-45
2022/08/30 04:26:24;;;;;;;7.53;6.60;;;24.30;53.60;;;;;;4940014;28;20199;-47
2022/08/30 04:28:49;;;;;;;6.73;6.13;;;24.40;53.40;;;;;;4948271;28;20211;-46
2022/08/30 04:31:16;;;;;;;6.97;6.10;;;24.40;53.50;;;;;;4950489;28;20192;-47
2022/08/30 04:33:42;;;;;;;6.70;6.20;;;24.20;54.20;;;;;;4952784;28;20200;-46
2022/08/30 04:36:09;;;;;;;6.53;5.93;;;23.80;55.50;;;;;;4948412;28;20440;-45
2022/08/30 04:38:36;;;;;;;6.97;6.17;;;23.60;56.20;;;;;;4951848;28;20466;-47
2022/08/30 04:41:07;;;;;;;7.63;5.83;;;23.60;56.20;;;;;;4950689;28;20451;-46
2022/08/30 04:43:33;;;;;;;7.17;6.30;;;23.70;56.10;;;;;;4952739;28;20436;-46
2022/08/30 04:45:58;;;;;;;8.40;5.90;;;23.80;55.90;;;;;;4952766;28;20498;-45
2022/08/30 04:48:24;;;;;;;6.67;5.93;;;23.80;55.90;;;;;;4950992;28;20235;-46
2022/08/30 04:50:49;;;;;;;6.07;5.47;;;23.80;55.80;;;;;;4952438;28;20200;-49
2022/08/30 04:53:15;;;;;;;7.47;6.13;;;23.80;55.60;;;;;;4952302;28;20668;-46
2022/08/30 04:55:42;;;;;;;6.70;6.10;;;23.90;55.30;;;;;;4948436;28;20572;-46
2022/08/30 04:58:09;;;;;;;6.43;5.50;;;23.90;55.40;;;;;;4949784;28;20211;-47
2022/08/30 05:00:36;;;;;;;7.50;6.00;;;23.90;55.30;;;;;;4937570;28;20443;-46
2022/08/30 05:03:02;;;;;;;7.90;5.90;;;24.10;55.20;;;;;;4946510;28;20450;-46
2022/08/30 05:05:41;;;;;;;7.37;5.93;;;24.00;55.10;;;;;;4950768;28;21042;-46
2022/08/30 05:08:12;;;;;;;7.07;6.33;;;24.00;55.10;;;;;;4943340;28;20598;-46
2022/08/30 05:10:41;;;;;;;9.80;7.63;;;24.00;55.50;;;;;;4944553;28;20466;-47
2022/08/30 05:13:06;;;;;;;6.97;6.27;;;24.30;54.20;;;;;;4948455;28;20987;-46
2022/08/30 05:15:32;;;;;;;9.20;7.40;;;24.50;52.90;;;;;;4946924;28;20448;-46
2022/08/30 05:17:58;;;;;;;7.70;7.10;;;24.40;53.30;;;;;;4950913;28;20454;-47
2022/08/30 05:20:24;;;;;;;8.03;6.10;;;24.20;53.60;;;;;;4944603;29;20943;-47
2022/08/30 05:22:50;;;;;;;8.83;6.17;;;24.00;55.00;;;;;;4943843;28;20196;-47
2022/08/30 05:25:18;;;;;;;11.67;6.30;;;24.10;54.50;;;;;;4942585;28;20659;-47
2022/08/30 05:27:44;;;;;;;6.73;5.83;;;24.30;53.90;;;;;;4950287;28;20487;-46
2022/08/30 05:30:12;;;;;;;6.77;6.27;;;24.40;53.70;;;;;;4930835;29;20447;-45
2022/08/30 05:32:38;;;;;;;7.77;6.97;;;24.30;53.70;;;;;;4948382;28;20543;-48
2022/08/30 05:35:08;;;;;;;8.17;6.93;;;24.20;54.70;;;;;;4931421;29;20719;-45
2022/08/30 05:37:34;;;;;;;6.07;5.57;;;24.40;54.20;;;;;;4944082;29;20200;-47
2022/08/30 05:40:00;;;;;;;8.60;6.50;;;24.50;54.00;;;;;;4943127;28;20444;-45
2022/08/30 05:42:26;;;;;;;7.90;6.60;;;24.70;53.40;;;;;;4946520;28;20486;-48
2022/08/30 05:44:53;;;;;;;7.70;6.90;;;24.80;53.20;;;;;;4945649;28;20200;-45
2022/08/30 05:47:20;;;;;;;7.37;6.67;;;24.90;53.00;;;;;;4946942;28;20248;-44
2022/08/30 05:49:46;;;;;;;6.47;5.90;;;24.90;52.90;;;;;;4942151;28;20534;-46
2022/08/30 05:52:14;;;;;;;7.73;6.57;;;24.90;53.10;;;;;;4944477;28;20962;-46
2022/08/30 05:54:40;;;;;;;8.77;6.33;;;24.90;53.10;;;;;;4941788;28;20444;-45
2022/08/30 05:57:06;;;;;;;7.00;6.40;;;24.90;53.10;;;;;;4946632;28;20440;-45
2022/08/30 05:59:32;;;;;;;6.70;6.10;;;25.00;53.00;;;;;;4943929;28;20468;-45
2022/08/30 06:01:58;;;;;;;8.13;7.40;;;24.90;52.90;;;;;;4948331;28;20522;-45
2022/08/30 06:04:24;;;;;;;7.23;6.53;;;24.70;53.20;;;;;;4943264;28;20255;-45
2022/08/30 06:06:50;;;;;;;6.93;6.20;;;;;;;;;;4942687;28;20227;-46
2022/08/30 06:09:16;;;;;;;7.60;6.90;;;24.10;54.30;;;;;;4943517;28;20192;-46
2022/08/30 06:11:43;;;;;;;7.10;6.40;;;24.30;54.70;;;;;;4949340;28;21227;-47
2022/08/30 06:14:08;;;;;;;8.63;6.43;;;24.50;54.30;;;;;;4946604;28;20510;-47
2022/08/30 06:16:37;;;;;;;6.63;5.90;;;24.60;54.00;;;;;;4942286;28;20936;-46
2022/08/30 06:19:04;;;;;;;6.73;5.97;;;24.40;54.30;;;;;;4946625;28;20200;-46
2022/08/30 06:21:36;;;;;;;6.87;6.17;;;24.50;54.20;;;;;;4949157;28;20447;-50
2022/08/30 06:24:04;;;;;;;7.67;6.97;;;24.40;54.20;;;;;;4944102;28;20480;-46
2022/08/30 06:26:30;;;;;;;8.10;6.60;;;24.10;54.60;;;;;;4944262;28;20527;-50
2022/08/30 06:28:57;;;;;;;8.00;6.90;;;24.20;55.10;;;;;;4948957;28;20494;-49
2022/08/30 06:31:24;;;;;;;7.40;6.73;;;24.60;54.50;;;;;;4948357;28;20534;-49
2022/08/30 06:33:50;;;;;;;11.00;7.10;;;24.70;53.70;;;;;;4949740;28;20465;-48
2022/08/30 06:36:19;;;;;;;7.07;6.47;;;25.00;53.40;;;;;;4949065;28;20494;-47
2022/08/30 06:38:49;;;;;;;6.47;5.80;;;25.10;53.20;;;;;;4951054;28;20444;-46
2022/08/30 06:41:19;;;;;;;8.90;7.63;;;25.30;52.90;;;;;;4949996;28;20442;-48
2022/08/30 06:43:45;;;;;;;10.50;6.73;;;25.50;52.20;;;;;;4951659;28;20443;-46
2022/08/30 06:46:14;;;;;;;8.23;7.20;;;25.60;51.80;;;;;;4951186;28;21094;-47
2022/08/30 06:48:40;;;;;;;8.50;5.97;;;25.70;51.40;;;;;;4951981;29;20432;-45
2022/08/30 06:51:06;;;;;;;10.73;6.70;;;25.60;51.50;;;;;;4951250;28;20456;-46
2022/08/30 06:53:33;;;;;;;6.43;5.90;;;25.90;51.60;;;;;;4955618;28;20278;-46
2022/08/30 06:56:02;;;;;;;8.27;7.47;;;26.00;50.90;;;;;;4953302;28;20890;-47
2022/08/30 06:58:29;;;;;;;8.37;7.70;;;26.10;50.50;;;;;;4953503;28;20452;-48
2022/08/30 07:00:57;;;;;;;7.00;6.30;;;26.30;50.10;;;;;;4952409;28;20459;-49
2022/08/30 07:03:26;;;;;;;6.57;5.90;;;26.10;50.20;;;;;;4951951;29;20447;-50
2022/08/30 07:05:52;;;;;;;7.13;6.53;;;26.20;50.30;;;;;;4952879;29;20826;-46
2022/08/30 07:08:18;;;;;;;7.30;6.57;;;26.30;49.70;;;;;;4953143;28;20487;-47
2022/08/30 07:10:44;;;;;;;7.10;6.40;;;26.40;49.30;;;;;;4954213;29;20446;-49
2022/08/30 07:13:10;;;;;;;6.90;5.37;;;26.20;48.80;;;;;;4953061;28;20228;-49
2022/08/30 07:15:40;;;;;;;6.30;5.80;;;26.10;49.90;;;;;;4954510;28;20466;-47
2022/08/30 07:20:49;;;;;;;6.40;5.90;;;26.60;48.60;;;;;;4950010;28;20454;-50
2022/08/30 07:23:15;;;;;;;6.30;5.70;;;26.70;48.70;;;;;;4940722;28;21289;-50
2022/08/30 07:25:41;;;;;;;5.93;5.07;;;26.70;47.90;;;;;;4947635;28;20200;-50
2022/08/30 07:28:08;;;;;;;9.10;5.60;;;26.80;47.60;;;;;;4949410;28;20262;-50
2022/08/30 07:30:34;;;;;;;6.13;5.53;;;26.70;48.00;;;;;;4948983;28;20193;-49
2022/08/30 07:33:00;;;;;;;6.10;5.50;;;26.80;47.80;;;;;;4950344;28;20526;-48
2022/08/30 07:35:26;;;;;;;7.23;5.80;;;27.00;47.40;;;;;;4951027;28;20554;-50
2022/08/30 07:37:51;;;;;;;6.00;5.40;;;27.30;46.80;;;;;;4950454;28;20475;-48
2022/08/30 07:40:17;;;;;;;8.50;6.10;;;27.60;46.30;;;;;;4949664;28;20197;-49
2022/08/30 07:42:43;;;;;;;7.80;5.50;;;27.50;45.60;;;;;;4949770;28;20212;-48
2022/08/30 07:45:10;;;;;;;8.87;5.40;;;27.30;46.50;;;;;;4943214;28;20203;-50
2022/08/30 07:47:36;;;;;;;6.40;5.80;;;27.60;46.10;;;;;;4942568;28;20696;-47
2022/08/30 07:50:03;;;;;;;9.60;5.17;;;27.80;45.70;;;;;;4939071;28;20451;-47
2022/08/30 07:52:29;;;;;;;6.50;5.87;;;27.90;45.30;;;;;;4946070;28;20931;-50
2022/08/30 07:54:56;;;;;;;5.37;4.87;;;28.20;45.20;;;;;;4942775;28;20559;-50
2022/08/30 07:57:23;;;;;;;5.77;5.27;;;28.40;44.60;;;;;;4942296;28;20575;-47
2022/08/30 07:59:48;;;;;;;6.07;5.57;;;28.40;44.60;;;;;;4940095;28;20495;-46
2022/08/30 08:02:14;;;;;;;6.63;5.40;;;28.40;45.20;;;;;;4943529;28;20531;-50
2022/08/30 08:04:40;;;;;;;5.57;5.07;;;28.50;44.90;;;;;;4940139;28;20192;-47
2022/08/30 08:07:05;;;;;;;6.00;5.50;;;28.70;44.90;;;;;;4943558;28;20724;-48
2022/08/30 08:09:32;;;;;;;6.73;6.20;;;28.70;45.00;;;;;;4945891;28;20200;-49
2022/08/30 08:11:58;;;;;;;8.67;6.13;;;28.60;45.20;;;;;;4940961;28;20194;-45
2022/08/30 08:14:24;;;;;;;6.37;5.77;;;28.40;45.60;;;;;;4938975;28;20476;-50
2022/08/30 08:16:51;;;;;;;6.00;5.50;;;28.50;45.40;;;;;;4942762;28;20206;-46
2022/08/30 08:19:18;;;;;;;6.80;6.10;;;28.70;45.10;;;;;;4938425;28;20444;-50
2022/08/30 08:21:44;;;;;;;5.67;5.07;;;29.00;45.30;;;;;;4941227;28;20494;-50
2022/08/30 08:24:10;;;;;;;6.13;5.40;;;29.20;45.40;;;;;;4947709;28;20868;-50
2022/08/30 08:26:37;;;;;;;6.77;6.13;;;29.30;44.70;;;;;;4943098;28;20220;-50
2022/08/30 08:29:04;;;;;;;6.23;5.73;;;29.60;44.40;;;;;;4951947;28;20748;-50
2022/08/30 08:31:29;;;;;;;11.27;6.00;;;29.70;44.30;;;;;;4951290;28;21051;-49
2022/08/30 08:33:57;;;;;;;6.83;6.23;;;29.90;43.90;;;;;;4951954;28;20542;-47
2022/08/30 08:36:23;;;;;;;6.37;5.80;;;29.90;43.60;;;;;;4942735;28;20203;-50
2022/08/30 08:38:48;;;;;;;6.57;6.07;;;30.10;43.40;;;;;;4948048;28;21414;-47
2022/08/30 08:41:42;;;;;;;7.07;6.40;;;30.20;42.90;;;;;;4947849;28;20372;-50
2022/08/30 08:44:27;;;;;;;6.23;5.63;;;30.10;43.00;;;;;;4949381;28;20223;-47
2022/08/30 08:47:16;;;;;;;7.17;6.13;;;30.10;43.20;;;;;;4947671;28;20893;-51
2022/08/30 08:49:45;;;;;;;5.23;4.83;;;30.00;43.30;;;;;;4942967;28;20544;-48
2022/08/30 08:55:11;;;;;;;6.90;6.37;;;30.00;43.60;;;;;;4949144;28;20502;-51
2022/08/30 08:57:37;;;;;;;6.30;5.80;;;30.20;43.20;;;;;;4950360;28;20458;-49
2022/08/30 09:00:05;;;;;;;6.50;5.90;;;30.40;43.20;;;;;;4942543;28;20442;-47
2022/08/30 09:02:46;;;;;;;6.13;5.60;;;30.60;43.00;;;;;;4933578;28;20664;-52
2022/08/30 09:05:17;;;;;;;6.83;6.03;;;30.90;42.60;;;;;;4938865;28;20462;-51
2022/08/30 09:07:53;;;;;;;7.20;6.20;;;31.10;42.00;;;;;;4937496;28;20486;-49
2022/08/30 09:10:19;;;;;;;6.67;6.07;;;31.20;41.80;;;;;;4938498;28;20482;-49
2022/08/30 09:12:45;;;;;;;6.37;5.87;;;31.30;41.60;;;;;;4939488;28;20475;-48
2022/08/30 09:15:20;;;;;;;8.73;6.60;;;31.20;41.20;;;;;;4938163;28;20444;-50
2022/08/30 09:17:53;;;;;;;5.97;5.50;;;31.30;41.30;;;;;;4938104;28;22093;-50
2022/08/30 09:20:28;;;;;;;7.03;6.33;;;31.10;40.90;;;;;;4937650;28;20464;-49
2022/08/30 09:22:53;;;;;;;7.03;5.97;;;31.40;40.50;;;;;;4935253;28;20510;-49
2022/08/30 09:25:28;;;;;;;7.17;6.30;;;31.70;40.60;;;;;;4951782;29;20436;-49
2022/08/30 09:28:12;;;;;;;6.20;5.70;;;31.70;40.30;;;;;;4947332;28;20621;-50
2022/08/30 09:30:39;;;;;;;7.23;5.80;;;31.90;40.10;;;;;;4945108;28;20474;-51
2022/08/30 09:33:18;;;;;;;6.87;6.40;;;31.80;41.00;;;;;;4946274;28;20439;-49
2022/08/30 09:35:50;;;;;;;6.43;5.83;;;32.00;39.60;;;;;;4942727;28;20465;-52
2022/08/30 09:38:20;;;;;;;6.80;6.30;;;32.20;39.60;;;;;;4946178;28;20494;-51
2022/08/30 09:40:51;;;;;;;6.70;6.20;;;32.20;39.40;;;;;;4946597;28;20459;-52
2022/08/30 09:43:17;;;;;;;6.33;5.80;;;32.20;38.70;;;;;;4943512;28;20443;-49
2022/08/30 09:46:03;;;;;;;7.30;6.60;;;32.20;39.00;;;;;;4942699;28;20461;-51
2022/08/30 09:48:29;;;;;;;7.07;6.47;;;32.50;38.90;;;;;;4938448;28;20741;-52
2022/08/30 09:51:14;;;;;;;6.60;6.00;;;32.70;38.50;;;;;;4945998;28;20474;-48
2022/08/30 09:53:51;;;;;;;6.13;5.63;;;32.20;38.90;;;;;;4938396;28;20204;-49
2022/08/30 09:56:23;;;;;;;6.30;5.70;;;32.40;38.20;;;;;;4941933;28;20505;-48
2022/08/30 09:59:12;;;;;;;6.47;5.63;;;32.20;38.70;;;;;;4950926;29;20467;-51
2022/08/30 10:01:47;;;;;;;5.93;5.43;;;32.20;37.90;;;;;;4947279;28;20462;-47
2022/08/30 10:04:18;;;;;;;5.67;5.17;;;32.70;37.50;;;;;;4942470;28;20446;-49
2022/08/30 10:07:03;;;;;;;5.17;4.80;;;33.20;35.90;;;;;;4947228;28;20502;-48
2022/08/30 10:09:56;;;;;;;5.80;5.10;;;33.60;35.10;;;;;;4948342;28;20455;-49
2022/08/30 10:15:13;;;;;;;7.27;4.87;;;34.00;34.70;;;;;;5084789;27;20744;-48
2022/08/30 10:17:54;;;;;;;5.73;5.30;;;33.80;34.10;;;;;;5083859;28;21003;-49
2022/08/30 10:20:38;;;;;;;7.33;6.30;;;33.60;34.60;;;;;;5076350;28;20504;-48
2022/08/30 10:23:13;;;;;;;6.27;5.77;;;33.70;35.00;;;;;;5082816;28;20484;-51
2022/08/30 10:25:47;;;;;;;4.83;4.43;;;34.10;34.40;;;;;;5082485;28;20460;-49
2022/08/30 10:28:18;;;;;;;5.93;5.40;;;34.20;33.30;;;;;;5081730;28;21176;-48
2022/08/30 10:30:51;;;;;;;5.27;4.77;;;34.40;32.20;;;;;;5085987;28;20493;-47
2022/08/30 10:33:27;;;;;;;6.00;5.50;;;34.50;32.40;;;;;;5083198;28;20477;-48
2022/08/30 10:35:57;;;;;;;6.27;5.50;;;34.50;33.40;;;;;;5086047;28;20540;-49
2022/08/30 10:38:32;;;;;;;5.80;5.30;;;34.20;32.90;;;;;;5083610;28;20469;-47
2022/08/30 10:41:23;;;;;;;5.67;5.20;;;34.40;33.40;;;;;;5083137;28;20492;-51
2022/08/30 10:44:00;;;;;;;5.90;5.30;;;34.70;33.60;;;;;;5083374;28;20937;-49
2022/08/30 10:46:38;;;;;;;6.37;5.97;;;34.80;34.10;;;;;;5085824;28;20559;-49
2022/08/30 10:49:18;;;;;;;5.30;4.90;;;34.80;32.80;;;;;;5084778;28;20437;-50
2022/08/30 10:51:51;;;;;;;6.53;6.00;;;35.10;32.50;;;;;;5084282;28;20502;-48
2022/08/30 10:54:20;;;;;;;6.47;6.00;;;35.20;33.20;;;;;;5082788;28;20545;-51
2022/08/30 10:56:50;;;;;;;5.87;5.47;;;35.40;32.50;;;;;;5081841;28;20468;-49
2022/08/30 10:59:17;;;;;;;6.03;5.50;;;35.60;31.90;;;;;;5085577;28;20441;-50
2022/08/30 11:02:01;;;;;;;5.57;5.27;;;35.80;31.50;;;;;;5090587;28;20440;-47
2022/08/30 11:04:51;;;;;;;5.63;5.00;;;35.70;31.80;;;;;;5083246;28;20925;-48
2022/08/30 11:07:20;;;;;;;6.43;5.83;;;35.80;31.80;;;;;;5074338;28;20503;-51
2022/08/30 11:09:49;;;;;;;5.90;5.30;;;35.70;31.50;;;;;;5078764;28;20442;-48
2022/08/30 11:12:50;;;;;;;6.93;6.03;;;35.60;31.30;;;;;;5094462;28;20488;-48
2022/08/30 11:15:28;;;;;;;5.93;5.43;;;35.20;31.20;;;;;;5088425;28;20469;-48
2022/08/30 11:18:02;;;;;;;5.70;5.30;;;35.50;31.00;;;;;;5082849;28;20463;-48
2022/08/30 11:20:42;;;;;;;5.90;5.40;;;35.60;31.20;;;;;;5080211;28;20571;-51
2022/08/30 11:23:29;;;;;;;7.17;6.50;;;35.90;30.90;;;;;;5083051;28;20489;-53
2022/08/30 11:26:10;;;;;;;6.33;5.73;;;36.10;30.90;;;;;;5064135;28;20450;-52
2022/08/30 11:28:35;;;;;;;5.97;5.37;;;36.10;31.00;;;;;;5070923;28;20919;-52
2022/08/30 11:31:04;;;;;;;6.47;5.97;;;36.10;31.20;;;;;;5070531;28;20472;-52
2022/08/30 11:33:54;;;;;;;5.83;5.33;;;35.90;30.80;;;;;;5069449;28;20281;-52
2022/08/30 11:36:34;;;;;;;5.93;5.43;;;35.90;30.40;;;;;;5067388;28;20503;-52
2022/08/30 11:39:08;;;;;;;4.90;4.60;;;36.10;30.40;;;;;;5068189;28;20463;-52
2022/08/30 11:41:44;;;;;;;5.67;5.30;;;36.20;29.80;;;;;;5073554;28;20452;-52
2022/08/30 11:44:21;;;;;;;6.20;5.67;;;36.30;29.50;;;;;;5074058;28;20463;-52
2022/08/30 11:46:59;;;;;;;6.97;5.73;;;36.20;29.70;;;;;;5065436;28;20968;-51
2022/08/30 11:50:06;;;;;;;7.13;5.30;;;35.60;30.60;;;;;;5070200;28;21233;-51
2022/08/30 11:52:47;;;;;;;6.10;5.70;;;35.10;31.40;;;;;;5034340;28;20884;-50
2022/08/30 11:55:30;;;;;;;5.40;4.93;;;34.10;32.70;;;;;;5067357;28;20462;-51
2022/08/30 11:58:24;;;;;;;6.50;5.80;;;34.30;32.90;;;;;;5073072;28;20949;-52
2022/08/30 12:01:30;;;;;;;6.17;5.57;;;34.90;32.40;;;;;;5066250;28;20459;-51
2022/08/30 12:04:11;;;;;;;5.90;5.40;;;35.00;31.60;;;;;;5062042;28;20439;-51
2022/08/30 12:06:39;;;;;;;5.43;5.03;;;35.60;31.10;;;;;;5057417;28;20529;-51
2022/08/30 12:09:31;;;;;;;5.40;4.97;;;35.80;30.10;;;;;;5068044;28;20446;-50
2022/08/30 12:12:05;;;;;;;5.97;5.00;;;35.60;29.90;;;;;;5063659;28;20518;-47
2022/08/30 12:14:53;;;;;;;5.80;5.40;;;35.40;30.70;;;;;;5064914;28;20490;-47
2022/08/30 12:20:49;;;;;;;5.77;5.37;;;34.70;31.30;;;;;;5066130;28;20528;-48
2022/08/30 12:23:28;;;;;;;5.80;5.40;;;34.70;31.90;;;;;;5064110;28;20686;-50
2022/08/30 12:26:27;;;;;;;4.90;4.60;;;34.60;31.40;;;;;;5078099;28;20495;-47
2022/08/30 12:29:18;;;;;;;5.50;5.00;;;34.40;31.70;;;;;;5069423;28;20886;-51
2022/08/30 12:31:54;;;;;;;5.87;5.23;;;34.80;31.50;;;;;;5063680;28;20461;-49
2022/08/30 12:34:24;;;;;;;5.23;4.83;;;34.40;31.40;;;;;;5069138;28;20562;-51
2022/08/30 12:37:02;;;;;;;5.80;5.30;;;34.40;31.90;;;;;;5069988;28;20945;-50
2022/08/30 12:39:41;;;;;;;5.83;4.80;;;34.40;31.80;;;;;;5070835;28;20454;-48
2022/08/30 12:42:28;;;;;;;6.23;5.63;;;34.50;31.50;;;;;;5071659;28;20450;-49
2022/08/30 12:45:00;;;;;;;5.93;5.53;;;34.70;30.90;;;;;;5064638;28;20457;-49
2022/08/30 12:48:04;;;;;;;5.23;4.83;;;34.80;31.10;;;;;;5080942;28;20430;-47
2022/08/30 12:50:35;;;;;;;5.90;5.40;;;35.00;30.60;;;;;;5070423;28;20446;-50
2022/08/30 12:53:10;;;;;;;5.87;5.47;;;34.90;31.20;;;;;;5068617;28;20478;-47
2022/08/30 12:55:54;;;;;;;6.43;5.23;;;34.80;31.20;;;;;;5069555;28;20520;-50
2022/08/30 12:58:48;;;;;;;5.63;5.23;;;34.90;30.90;;;;;;5068929;28;20449;-53
2022/08/30 13:01:34;;;;;;;9.03;5.50;;;35.30;31.00;;;;;;5062333;28;20450;-48
2022/08/30 13:04:15;;;;;;;5.10;4.60;;;35.30;30.20;;;;;;5075070;28;20465;-47
2022/08/30 13:06:57;;;;;;;5.73;5.23;;;35.00;30.80;;;;;;5066174;28;20444;-49
2022/08/30 13:09:33;;;;;;;4.60;4.30;;;35.30;30.80;;;;;;5061261;28;20452;-48
2022/08/30 13:12:05;;;;;;;5.50;5.00;;;35.70;30.00;;;;;;5069254;28;20445;-51
2022/08/30 13:14:38;;;;;;;5.43;4.93;;;35.60;29.60;;;;;;5062519;28;20494;-49
2022/08/30 13:17:21;;;;;;;5.60;5.20;;;35.70;29.60;;;;;;5065539;28;20454;-49